Terminal Aerodrome Forecast
Issued by NWS

Current Version | Previous Version | Text Only | Print | Product List | Glossary On
Versions: 1 2 3 4 5 6 7 8 9 10 11 12 13 14
000
FTUS44 KLIX 012331
TAFMCB
TAF
KMCB 012331Z 0200/0224 15005KT P6SM SKC
     FM020100 VRB03KT P6SM SCT250
     FM020900 00000KT 4SM BR SCT250
     FM021600 VRB03KT P6SM SCT030=

USA.gov is the U.S. government's official web portal to all federal, state and local government web resources and services.